createdAt,value
2019-03-27T00:00:22.897Z,16.00
2019-03-27T00:02:52.355Z,15.23
2019-03-27T00:05:21.718Z,15.20
2019-03-27T00:07:51.078Z,15.38
2019-03-27T00:10:20.495Z,14.87
2019-03-27T00:12:49.886Z,16.48
2019-03-27T00:15:19.236Z,16.55
2019-03-27T00:17:48.580Z,15.85
2019-03-27T00:20:18.107Z,15.77
2019-03-27T00:22:47.599Z,15.85
2019-03-27T00:25:17.049Z,16.13
2019-03-27T00:27:46.487Z,17.07
2019-03-27T00:30:17.774Z,16.65
2019-03-27T00:32:47.163Z,16.13
2019-03-27T00:35:16.507Z,18.02
2019-03-27T00:37:52.807Z,16.27
2019-03-27T00:40:22.213Z,15.98
2019-03-27T00:42:51.551Z,15.93
2019-03-27T00:45:26.779Z,16.00
2019-03-27T00:47:51.995Z,15.60
2019-03-27T00:50:21.353Z,15.57
2019-03-27T00:52:50.696Z,16.30
2019-03-27T00:55:20.045Z,15.45
2019-03-27T00:57:49.501Z,16.12
2019-03-27T01:00:25.131Z,16.32
2019-03-27T01:02:54.575Z,16.15
2019-03-27T01:05:24.074Z,16.75
2019-03-27T01:07:53.471Z,17.70
2019-03-27T01:10:22.819Z,16.93
2019-03-27T01:12:52.178Z,16.77
2019-03-27T01:15:21.641Z,17.62
2019-03-27T01:17:51.091Z,17.32
2019-03-27T01:20:20.496Z,17.45
2019-03-27T01:22:49.860Z,16.48
2019-03-27T01:25:19.215Z,16.93
2019-03-27T01:27:48.625Z,17.32
2019-03-27T01:30:18.386Z,18.60
2019-03-27T01:32:48.816Z,17.20
2019-03-27T01:35:18.180Z,16.60
2019-03-27T01:37:47.580Z,15.08
2019-03-27T01:40:16.932Z,17.50
2019-03-27T01:42:46.307Z,18.57
2019-03-27T01:45:15.722Z,17.20
2019-03-27T01:47:45.074Z,16.00
2019-03-27T01:50:14.498Z,16.87
2019-03-27T01:52:43.855Z,17.82
2019-03-27T01:55:13.299Z,18.32
2019-03-27T01:57:42.640Z,17.95
2019-03-27T02:00:12.346Z,17.73
2019-03-27T02:02:41.938Z,17.77
2019-03-27T02:05:11.443Z,17.87
2019-03-27T02:07:41.183Z,16.32
2019-03-27T02:10:11.279Z,16.82
2019-03-27T02:12:40.659Z,16.45
2019-03-27T02:15:11.374Z,17.15
2019-03-27T02:17:42.273Z,17.62
2019-03-27T02:20:11.850Z,17.63
2019-03-27T02:22:41.313Z,17.35
2019-03-27T02:25:10.793Z,17.94
2019-03-27T02:27:40.182Z,17.40
2019-03-27T02:30:09.986Z,18.20
2019-03-27T02:32:39.513Z,17.60
2019-03-27T02:35:08.951Z,16.60
2019-03-27T02:37:38.295Z,19.20
2019-03-27T02:40:07.891Z,19.62
2019-03-27T02:42:37.328Z,18.17
2019-03-27T02:45:07.811Z,16.48
2019-03-27T02:47:37.275Z,17.00
2019-03-27T02:50:08.031Z,17.20
2019-03-27T02:52:38.913Z,17.60
2019-03-27T02:55:08.729Z,16.90
2019-03-27T02:57:38.171Z,16.93
2019-03-27T03:00:10.567Z,16.62
2019-03-27T03:02:40.124Z,17.55
2019-03-27T03:05:10.823Z,16.73
2019-03-27T03:07:40.196Z,18.07
2019-03-27T03:10:10.970Z,16.87
2019-03-27T03:12:40.423Z,18.03
2019-03-27T03:15:10.278Z,16.58
2019-03-27T03:17:41.338Z,16.62
2019-03-27T03:20:10.975Z,17.50
2019-03-27T03:22:40.401Z,17.35
2019-03-27T03:25:10.192Z,16.25
2019-03-27T03:27:39.669Z,17.60
2019-03-27T03:30:10.661Z,16.02
2019-03-27T03:32:40.175Z,14.77
2019-03-27T03:35:10.723Z,15.34
2019-03-27T03:37:40.191Z,14.75
2019-03-27T03:40:10.237Z,15.55
2019-03-27T03:42:41.128Z,15.30
2019-03-27T03:45:10.712Z,16.27
2019-03-27T03:47:40.157Z,15.58
2019-03-27T03:50:29.549Z,15.60
2019-03-27T03:52:59.331Z,17.00
2019-03-27T03:55:29.233Z,15.05
2019-03-27T03:57:58.844Z,15.18
2019-03-27T04:00:28.336Z,15.80
2019-03-27T04:02:57.753Z,15.98
2019-03-27T04:05:27.188Z,15.35
2019-03-27T04:07:56.618Z,15.25
2019-03-27T04:10:26.055Z,14.53
2019-03-27T04:12:55.419Z,14.73
2019-03-27T04:15:24.837Z,15.45
2019-03-27T04:17:54.278Z,14.47
2019-03-27T04:20:23.696Z,14.03
2019-03-27T04:22:53.043Z,14.90
2019-03-27T04:25:22.398Z,13.65
2019-03-27T04:27:51.759Z,13.62
2019-03-27T04:30:21.130Z,14.33
2019-03-27T04:32:50.572Z,14.68
2019-03-27T04:35:19.932Z,14.30
2019-03-27T04:37:49.302Z,14.38
2019-03-27T04:40:18.659Z,14.00
2019-03-27T04:42:48.020Z,14.63
2019-03-27T04:45:17.726Z,13.43
2019-03-27T04:47:47.221Z,14.90
2019-03-27T04:50:16.569Z,13.13
2019-03-27T04:52:45.919Z,13.08
2019-03-27T04:55:15.391Z,13.68
2019-03-27T04:57:44.807Z,13.60
2019-03-27T05:00:14.828Z,13.15
2019-03-27T05:02:44.255Z,13.80
2019-03-27T05:05:13.843Z,13.28
2019-03-27T05:07:43.226Z,13.32
2019-03-27T05:10:13.118Z,12.88
2019-03-27T05:12:42.484Z,12.58
2019-03-27T05:15:12.031Z,11.65
2019-03-27T05:17:46.179Z,12.73
2019-03-27T05:20:12.773Z,13.15
2019-03-27T05:22:42.183Z,12.50
2019-03-27T05:25:11.667Z,10.83
2019-03-27T05:27:41.335Z,11.30
2019-03-27T05:30:13.260Z,11.04
2019-03-27T05:32:44.173Z,11.12
2019-03-27T05:35:13.582Z,12.57
2019-03-27T05:37:42.943Z,12.30
2019-03-27T05:40:12.379Z,12.78
2019-03-27T05:42:41.821Z,11.33
2019-03-27T05:45:11.389Z,12.20
2019-03-27T05:47:40.749Z,12.73
2019-03-27T05:50:11.052Z,12.18
2019-03-27T05:52:40.549Z,12.05
2019-03-27T05:55:10.048Z,11.80
2019-03-27T05:57:39.618Z,12.80
2019-03-27T06:00:10.375Z,11.65
2019-03-27T06:02:39.735Z,13.00
2019-03-27T06:05:09.336Z,11.80
2019-03-27T06:07:38.772Z,12.45
2019-03-27T06:10:08.321Z,12.75
2019-03-27T06:12:57.019Z,12.70
2019-03-27T06:15:26.378Z,13.32
2019-03-27T06:17:55.756Z,14.15
2019-03-27T06:20:25.189Z,15.63
2019-03-27T06:22:54.573Z,15.58
2019-03-27T06:25:24.107Z,15.05
2019-03-27T06:27:54.508Z,15.18
2019-03-27T06:30:30.920Z,14.55
2019-03-27T06:33:04.596Z,14.25
2019-03-27T06:35:33.967Z,15.18
2019-03-27T06:38:03.419Z,15.45
2019-03-27T06:40:32.848Z,15.95
2019-03-27T06:43:02.432Z,15.25
2019-03-27T06:48:02.106Z,13.98
2019-03-27T06:50:31.471Z,14.93
2019-03-27T06:53:00.911Z,14.30
2019-03-27T06:55:30.262Z,15.48
2019-03-27T06:57:59.617Z,16.05
2019-03-27T07:00:37.444Z,15.15
2019-03-27T07:03:07.716Z,16.02
2019-03-27T07:05:38.179Z,13.93
2019-03-27T07:08:07.516Z,15.13
2019-03-27T07:10:36.862Z,14.20
2019-03-27T07:13:07.375Z,13.03
2019-03-27T07:15:36.823Z,13.72
2019-03-27T07:18:06.247Z,12.95
2019-03-27T07:20:35.596Z,13.30
2019-03-27T07:23:05.420Z,12.75
2019-03-27T07:25:34.834Z,13.93
2019-03-27T07:28:04.330Z,13.25
2019-03-27T07:30:33.697Z,13.13
2019-03-27T07:33:03.125Z,12.53
2019-03-27T07:35:32.504Z,12.28
2019-03-27T07:38:01.840Z,12.85
2019-03-27T07:40:31.283Z,12.85
2019-03-27T07:43:01.685Z,13.80
2019-03-27T07:45:31.051Z,14.87
2019-03-27T07:48:00.411Z,13.08
2019-03-27T07:50:30.980Z,13.25
2019-03-27T07:53:00.419Z,14.05
2019-03-27T07:55:29.779Z,11.03
2019-03-27T07:57:59.146Z,8.10
2019-03-27T08:00:28.579Z,7.22
2019-03-27T08:02:57.999Z,7.78
2019-03-27T08:05:27.403Z,8.55
2019-03-27T08:07:56.845Z,7.87
2019-03-27T08:10:26.264Z,8.30
2019-03-27T08:12:55.643Z,8.08
2019-03-27T08:15:26.895Z,7.30
2019-03-27T08:17:56.249Z,8.83
2019-03-27T08:20:25.620Z,7.92
2019-03-27T08:22:54.974Z,7.90
2019-03-27T08:25:24.355Z,8.60
2019-03-27T08:27:53.724Z,7.17
2019-03-27T08:30:23.237Z,8.15
2019-03-27T08:32:52.600Z,7.20
2019-03-27T08:35:22.044Z,7.42
2019-03-27T08:37:51.438Z,7.12
2019-03-27T08:40:20.856Z,6.50
2019-03-27T08:42:50.214Z,6.83
2019-03-27T08:45:20.364Z,6.55
2019-03-27T08:47:49.742Z,6.30
2019-03-27T08:50:19.076Z,5.67
2019-03-27T08:52:48.452Z,5.30
2019-03-27T08:55:17.863Z,3.42
2019-03-27T08:57:47.209Z,2.55
2019-03-27T09:00:21.276Z,3.35
2019-03-27T09:02:49.456Z,4.47
2019-03-27T09:05:18.961Z,4.90
2019-03-27T09:07:48.324Z,5.20
2019-03-27T09:10:17.920Z,5.43
2019-03-27T09:12:47.265Z,4.00
2019-03-27T09:15:16.683Z,4.93
2019-03-27T09:17:46.052Z,4.25
2019-03-27T09:20:15.838Z,4.73
2019-03-27T09:22:45.264Z,4.25
2019-03-27T09:25:14.784Z,4.40
2019-03-27T09:27:44.140Z,4.35
2019-03-27T09:30:14.160Z,4.73
2019-03-27T09:32:43.638Z,4.25
2019-03-27T09:35:13.222Z,4.00
2019-03-27T09:37:42.656Z,3.95
2019-03-27T09:40:12.504Z,3.93
2019-03-27T09:42:41.869Z,4.80
2019-03-27T09:45:12.555Z,3.27
2019-03-27T09:47:42.077Z,3.20
2019-03-27T09:50:11.547Z,3.62
2019-03-27T09:52:40.915Z,3.35
2019-03-27T09:55:10.481Z,3.90
2019-03-27T09:57:39.904Z,4.15
2019-03-27T10:00:10.105Z,3.95
2019-03-27T10:02:39.643Z,3.30
2019-03-27T10:05:09.047Z,3.60
2019-03-27T10:07:38.434Z,3.42
2019-03-27T10:10:08.259Z,3.22
2019-03-27T10:12:37.620Z,2.83
2019-03-27T10:15:08.028Z,2.15
2019-03-27T10:17:37.422Z,3.53
2019-03-27T10:20:07.131Z,2.90
2019-03-27T10:22:36.733Z,2.45
2019-03-27T10:25:08.085Z,3.42
2019-03-27T10:27:37.521Z,3.60
2019-03-27T10:30:08.998Z,3.58
2019-03-27T10:32:38.386Z,3.42
2019-03-27T10:35:08.363Z,4.42
2019-03-27T10:37:37.789Z,4.15
2019-03-27T10:40:07.821Z,3.87
2019-03-27T10:42:37.300Z,3.30
2019-03-27T10:45:07.914Z,4.05
2019-03-27T10:47:37.453Z,4.10
2019-03-27T10:50:17.428Z,3.87
2019-03-27T10:52:38.440Z,3.27
2019-03-27T10:55:08.014Z,3.80
2019-03-27T10:57:37.592Z,3.22
2019-03-27T11:00:11.142Z,3.37
2019-03-27T11:02:40.709Z,3.62
2019-03-27T11:05:10.281Z,4.00
2019-03-27T11:07:39.701Z,3.67
2019-03-27T11:10:09.895Z,3.85
2019-03-27T11:12:39.292Z,3.67
2019-03-27T11:15:09.334Z,4.53
2019-03-27T11:17:38.742Z,4.35
2019-03-27T11:20:09.505Z,5.03
2019-03-27T11:22:38.931Z,4.80
2019-03-27T11:25:09.032Z,4.20
2019-03-27T11:27:38.392Z,5.03
2019-03-27T11:30:08.894Z,5.17
2019-03-27T11:32:38.376Z,5.53
2019-03-27T11:35:08.040Z,6.15
2019-03-27T11:37:38.483Z,5.50
2019-03-27T11:40:08.679Z,4.83
2019-03-27T11:42:38.271Z,5.40
2019-03-27T11:45:08.383Z,5.72
2019-03-27T11:47:37.909Z,5.00
2019-03-27T11:50:09.462Z,4.75
2019-03-27T11:52:38.846Z,4.70
2019-03-27T11:55:08.625Z,4.58
2019-03-27T11:57:38.059Z,4.60
2019-03-27T12:00:09.615Z,4.75
2019-03-27T12:02:39.266Z,4.87
2019-03-27T12:05:08.905Z,5.10
2019-03-27T12:07:38.372Z,4.67
2019-03-27T12:10:08.517Z,5.33
2019-03-27T12:12:37.961Z,5.30
2019-03-27T12:15:09.325Z,5.17
2019-03-27T12:17:38.765Z,5.65
2019-03-27T12:20:08.977Z,5.22
2019-03-27T12:22:38.401Z,4.25
2019-03-27T12:25:07.894Z,4.10
2019-03-27T12:27:37.271Z,4.37
2019-03-27T12:30:08.060Z,4.67
2019-03-27T12:32:37.771Z,4.90
2019-03-27T12:35:07.266Z,5.10
2019-03-27T12:37:36.641Z,5.12
2019-03-27T12:40:11.297Z,4.70
2019-03-27T12:42:37.530Z,5.25
2019-03-27T12:45:07.521Z,5.53
2019-03-27T12:47:36.925Z,4.78
2019-03-27T12:50:08.180Z,4.60
2019-03-27T12:52:38.677Z,5.08
2019-03-27T12:55:08.273Z,4.72
2019-03-27T12:57:37.757Z,4.47
2019-03-27T13:00:09.166Z,4.95
2019-03-27T13:02:38.668Z,4.75
2019-03-27T13:05:28.956Z,5.60
2019-03-27T13:07:58.387Z,5.30
2019-03-27T13:10:27.880Z,5.25
2019-03-27T13:12:57.272Z,5.28
2019-03-27T13:15:26.710Z,5.95
2019-03-27T13:17:56.317Z,6.05
2019-03-27T13:20:28.389Z,6.22
2019-03-27T13:22:57.876Z,6.12
2019-03-27T13:25:27.335Z,6.22
2019-03-27T13:27:56.762Z,6.12
2019-03-27T13:30:26.113Z,6.08
2019-03-27T13:32:55.516Z,5.75
2019-03-27T13:35:25.991Z,5.37
2019-03-27T13:37:55.376Z,5.90
2019-03-27T13:40:24.736Z,5.65
2019-03-27T13:42:54.093Z,6.35
2019-03-27T13:45:23.610Z,6.60
2019-03-27T13:47:55.394Z,6.65
2019-03-27T13:50:25.055Z,6.90
2019-03-27T13:52:54.413Z,7.70
2019-03-27T13:55:25.584Z,7.75
2019-03-27T13:57:54.963Z,7.90
2019-03-27T14:00:24.470Z,7.37
2019-03-27T14:02:53.921Z,7.78
2019-03-27T14:05:23.422Z,7.97
2019-03-27T14:07:52.893Z,7.10
2019-03-27T14:10:22.372Z,7.28
2019-03-27T14:12:51.743Z,6.85
2019-03-27T14:15:21.572Z,7.20
2019-03-27T14:17:50.939Z,7.60
2019-03-27T14:20:20.729Z,7.55
2019-03-27T14:22:50.092Z,7.55
2019-03-27T14:25:22.075Z,6.80
2019-03-27T14:27:51.395Z,7.42
2019-03-27T14:30:29.481Z,8.03
2019-03-27T14:32:58.833Z,7.95
2019-03-27T14:35:28.186Z,8.45
2019-03-27T14:37:57.630Z,7.53
2019-03-27T14:40:26.973Z,8.10
2019-03-27T14:42:56.317Z,8.78
2019-03-27T14:45:25.695Z,7.87
2019-03-27T14:47:55.183Z,7.72
2019-03-27T14:50:24.554Z,7.83
2019-03-27T14:52:53.999Z,7.07
2019-03-27T14:55:23.450Z,7.30
2019-03-27T14:57:52.884Z,8.30
2019-03-27T15:00:22.314Z,7.50
2019-03-27T15:02:51.818Z,8.60
2019-03-27T15:05:21.328Z,8.13
2019-03-27T15:07:50.748Z,8.23
2019-03-27T15:10:20.113Z,7.58
2019-03-27T15:12:49.487Z,8.15
2019-03-27T15:15:19.051Z,8.63
2019-03-27T15:17:48.499Z,7.92
2019-03-27T15:20:17.968Z,8.23
2019-03-27T15:22:47.358Z,8.43
2019-03-27T15:25:16.699Z,9.20
2019-03-27T15:27:46.086Z,8.78
2019-03-27T15:30:15.877Z,7.78
2019-03-27T15:32:45.238Z,8.05
2019-03-27T15:35:14.948Z,8.58
2019-03-27T15:37:44.348Z,9.43
2019-03-27T15:40:14.271Z,8.27
2019-03-27T15:42:43.784Z,8.50
2019-03-27T15:45:13.315Z,9.10
2019-03-27T15:47:42.681Z,8.13
2019-03-27T15:50:12.187Z,8.23
2019-03-27T15:52:41.531Z,8.70
2019-03-27T15:55:12.146Z,8.65
2019-03-27T15:57:41.642Z,8.25
2019-03-27T16:00:12.128Z,8.15
2019-03-27T16:02:41.821Z,8.30
2019-03-27T16:05:11.330Z,9.55
2019-03-27T16:07:40.926Z,8.33
2019-03-27T16:10:10.466Z,9.04
2019-03-27T16:12:39.847Z,8.03
2019-03-27T16:15:11.115Z,9.20
2019-03-27T16:17:41.562Z,8.23
2019-03-27T16:20:14.684Z,7.67
2019-03-27T16:22:50.538Z,8.38
2019-03-27T16:25:15.309Z,8.57
2019-03-27T16:27:44.711Z,7.37
2019-03-27T16:30:17.195Z,8.70
2019-03-27T16:35:14.369Z,7.60
2019-03-27T16:37:44.173Z,7.22
2019-03-27T16:40:15.112Z,6.77
2019-03-27T16:42:44.481Z,7.40
2019-03-27T16:45:15.062Z,7.65
2019-03-27T16:47:44.440Z,6.90
2019-03-27T16:50:15.417Z,8.45
2019-03-27T16:52:44.778Z,7.90
2019-03-27T16:55:14.272Z,6.93
2019-03-27T16:57:43.725Z,6.83
2019-03-27T17:00:13.487Z,7.10
2019-03-27T17:02:42.847Z,6.25
2019-03-27T17:05:15.667Z,6.97
2019-03-27T17:07:43.557Z,7.03
2019-03-27T17:10:14.210Z,6.28
2019-03-27T17:12:43.600Z,6.85
2019-03-27T17:15:13.460Z,7.17
2019-03-27T17:17:42.840Z,7.78
2019-03-27T17:20:13.250Z,6.75
2019-03-27T17:22:42.687Z,7.92
2019-03-27T17:25:12.203Z,6.45
2019-03-27T17:27:41.573Z,6.60
2019-03-27T17:30:12.124Z,6.75
2019-03-27T17:32:41.760Z,5.37
2019-03-27T17:35:11.311Z,5.95
2019-03-27T17:37:40.750Z,6.08
2019-03-27T17:40:10.948Z,7.45
2019-03-27T17:42:40.375Z,6.25
2019-03-27T17:45:09.884Z,6.94
2019-03-27T17:47:39.241Z,6.08
2019-03-27T17:50:09.200Z,6.83
2019-03-27T17:52:38.725Z,6.22
2019-03-27T17:55:08.946Z,6.42
2019-03-27T17:57:38.395Z,6.00
2019-03-27T18:00:15.003Z,6.83
2019-03-27T18:02:44.414Z,6.50
2019-03-27T18:05:14.144Z,6.42
2019-03-27T18:07:43.525Z,6.12
2019-03-27T18:10:13.188Z,6.17
2019-03-27T18:12:42.544Z,5.65
2019-03-27T18:15:12.182Z,6.13
2019-03-27T18:17:41.533Z,6.33
2019-03-27T18:20:11.131Z,5.93
2019-03-27T18:22:40.481Z,6.87
2019-03-27T18:25:10.115Z,6.55
2019-03-27T18:27:39.472Z,6.65
2019-03-27T18:30:09.074Z,6.75
2019-03-27T18:32:38.513Z,7.22
2019-03-27T18:35:08.134Z,8.03
2019-03-27T18:37:37.641Z,7.62
2019-03-27T18:40:07.628Z,8.33
2019-03-27T18:42:37.221Z,10.50
2019-03-27T18:45:10.915Z,8.97
2019-03-27T18:47:40.283Z,11.45
2019-03-27T18:50:10.033Z,9.80
2019-03-27T18:52:39.403Z,8.90
2019-03-27T18:55:08.999Z,7.47
2019-03-27T18:57:38.369Z,7.80
2019-03-27T19:00:10.349Z,7.67
2019-03-27T19:02:39.845Z,7.80
2019-03-27T19:05:09.521Z,7.62
2019-03-27T19:07:40.106Z,8.17
2019-03-27T19:10:12.310Z,8.13
2019-03-27T19:12:41.675Z,8.93
2019-03-27T19:15:11.026Z,9.33
2019-03-27T19:17:40.492Z,8.90
2019-03-27T19:20:10.111Z,9.78
2019-03-27T19:22:39.537Z,9.95
2019-03-27T19:25:09.044Z,10.08
2019-03-27T19:27:38.431Z,9.73
2019-03-27T19:30:09.428Z,10.32
2019-03-27T19:32:38.852Z,11.00
2019-03-27T19:35:08.384Z,10.95
2019-03-27T19:37:38.710Z,10.95
2019-03-27T19:40:08.632Z,10.30
2019-03-27T19:42:38.275Z,11.43
2019-03-27T19:45:07.948Z,10.18
2019-03-27T19:47:37.611Z,10.65
2019-03-27T19:50:07.386Z,12.00
2019-03-27T19:52:36.970Z,12.03
2019-03-27T19:55:06.474Z,11.93
2019-03-27T19:57:35.920Z,13.05
2019-03-27T20:00:10.627Z,11.05
2019-03-27T20:02:40.144Z,11.68
2019-03-27T20:05:09.642Z,12.65
2019-03-27T20:07:39.080Z,12.40
2019-03-27T20:10:09.656Z,13.22
2019-03-27T20:12:39.240Z,12.25
2019-03-27T20:15:12.480Z,13.22
2019-03-27T20:20:09.891Z,13.45
2019-03-27T20:22:39.516Z,13.93
2019-03-27T20:25:09.311Z,12.10
2019-03-27T20:27:39.062Z,13.95
2019-03-27T20:30:14.466Z,13.13
2019-03-27T20:32:44.151Z,13.28
2019-03-27T20:35:13.636Z,13.90
2019-03-27T20:37:43.005Z,14.68
2019-03-27T20:40:13.037Z,13.13
2019-03-27T20:42:42.523Z,14.40
2019-03-27T20:45:12.775Z,14.18
2019-03-27T20:47:42.154Z,13.68
2019-03-27T20:50:13.114Z,13.90
2019-03-27T20:52:42.540Z,14.33
2019-03-27T20:55:12.152Z,14.25
2019-03-27T20:57:41.612Z,14.83
2019-03-27T21:00:14.113Z,17.30
2019-03-27T21:02:44.433Z,15.70
2019-03-27T21:05:14.144Z,14.07
2019-03-27T21:07:43.608Z,15.88
2019-03-27T21:10:13.795Z,15.32
2019-03-27T21:12:43.229Z,15.13
2019-03-27T21:15:12.877Z,15.63
2019-03-27T21:17:42.453Z,15.80
2019-03-27T21:20:12.075Z,15.53
2019-03-27T21:22:41.521Z,16.17
2019-03-27T21:25:12.036Z,15.90
2019-03-27T21:27:41.412Z,16.45
2019-03-27T21:30:11.670Z,17.12
2019-03-27T21:32:41.144Z,15.60
2019-03-27T21:35:10.957Z,16.97
2019-03-27T21:37:40.347Z,15.65
2019-03-27T21:40:10.177Z,15.85
2019-03-27T21:42:39.745Z,13.98
2019-03-27T21:45:10.043Z,13.03
2019-03-27T21:47:40.479Z,13.57
2019-03-27T21:50:11.450Z,13.40
2019-03-27T21:52:42.522Z,13.35
2019-03-27T21:55:22.417Z,14.53
2019-03-27T21:57:44.501Z,12.68
2019-03-27T22:00:17.057Z,13.98
2019-03-27T22:02:46.596Z,14.58
2019-03-27T22:05:16.194Z,13.60
2019-03-27T22:07:45.657Z,14.38
2019-03-27T22:10:15.115Z,14.43
2019-03-27T22:12:44.578Z,14.30
2019-03-27T22:15:14.245Z,14.33
2019-03-27T22:17:43.716Z,14.07
2019-03-27T22:20:13.382Z,14.60
2019-03-27T22:22:42.925Z,15.18
2019-03-27T22:25:12.532Z,15.00
2019-03-27T22:27:41.901Z,13.93
2019-03-27T22:30:11.769Z,14.13
2019-03-27T22:32:41.290Z,14.65
2019-03-27T22:35:10.922Z,13.97
2019-03-27T22:37:40.379Z,15.13
2019-03-27T22:40:09.969Z,15.05
2019-03-27T22:42:39.370Z,16.48
2019-03-27T22:45:08.905Z,16.02
2019-03-27T22:47:38.427Z,17.32
2019-03-27T22:50:08.796Z,20.60
2019-03-27T22:52:38.357Z,21.40
2019-03-27T22:55:08.095Z,19.60
2019-03-27T22:57:37.540Z,19.07
2019-03-27T23:00:11.592Z,19.15
2019-03-27T23:02:42.839Z,18.35
2019-03-27T23:05:12.611Z,17.95
2019-03-27T23:07:42.051Z,17.55
2019-03-27T23:10:11.872Z,19.02
2019-03-27T23:12:41.342Z,19.50
2019-03-27T23:15:13.771Z,18.77
2019-03-27T23:17:43.249Z,21.05
2019-03-27T23:20:12.843Z,20.85
2019-03-27T23:22:42.308Z,20.88
2019-03-27T23:25:12.104Z,22.32
2019-03-27T23:27:41.475Z,21.40
2019-03-27T23:30:11.528Z,26.08
2019-03-27T23:32:41.130Z,26.85
2019-03-27T23:35:10.777Z,27.42
2019-03-27T23:37:40.240Z,24.40
2019-03-27T23:40:09.880Z,23.12
2019-03-27T23:42:39.469Z,21.52
2019-03-27T23:45:09.388Z,21.75
2019-03-27T23:47:38.893Z,21.80
2019-03-27T23:50:09.561Z,22.35
2019-03-27T23:52:39.017Z,21.73
2019-03-27T23:55:08.715Z,21.82
2019-03-27T23:57:38.189Z,21.57
